Terminal Aerodrome Forecast
Issued by NWS Central Illinois

Home | Current Version | Previous Version | Text Only | Print | Product List | Glossary On
Versions: 1 2 3 4 5 6 7 8 9 10 11 12
000
FTUS43 KILX 011100
TAFSPI
TAF
KSPI 011120Z 0112/0212 12013KT 1SM -SN BR OVC004
     FM011800 VRB06KT 4SM -SN BR OVC008
     FM012100 35012G22KT P6SM VCSH OVC008
     FM020200 33015G25KT P6SM OVC015=

USA.gov is the U.S. government's official web portal to all federal, state and local government web resources and services.